Time;durP1;ratioP1;P1;durP2;ratioP2;P2;SDS_P1;SDS_P2;PMS_P1;PMS_P2;Temp;Humidity;BMP_temperature;BMP_pressure;BME280_temperature;BME280_humidity;BME280_pressure;Samples;Min_cycle;Max_cycle;Signal;HPM_P1;HPM_P2
2022/09/27 00:01:43;;;;;;;3.63;1.80;;;;;;;21.62;62.18;98060.06;6127985;23;20147;-91
2022/09/27 00:04:11;;;;;;;3.60;2.43;;;;;;;21.56;61.99;98058.09;6127680;23;20250;-91
2022/09/27 00:06:37;;;;;;;3.07;1.90;;;;;;;21.68;61.33;98057.53;6127566;23;20580;-90
2022/09/27 00:09:19;;;;;;;3.63;1.87;;;;;;;21.82;60.48;98047.94;6127294;23;20155;-93
2022/09/27 00:11:46;;;;;;;3.70;1.63;;;;;;;21.78;61.08;98039.44;6126885;23;20163;-89
2022/09/27 00:14:16;;;;;;;2.73;1.63;;;;;;;21.82;61.28;98043.44;6149954;23;20155;-90
2022/09/27 00:16:50;;;;;;;6.77;1.60;;;;;;;21.81;61.21;98032.91;6126237;23;20148;-92
2022/09/27 00:19:18;;;;;;;4.03;2.50;;;;;;;22.00;61.44;98024.47;6127574;23;20140;-89
2022/09/27 00:21:50;;;;;;;3.83;2.00;;;;;;;21.94;61.21;98028.69;6151269;23;20159;-91
2022/09/27 00:24:19;;;;;;;3.50;2.10;;;;;;;22.06;61.13;98012.25;6127159;23;20322;-90
2022/09/27 00:27:26;;;;;;;3.10;2.00;;;;;;;22.15;60.75;98022.66;6127531;23;20244;-91
2022/09/27 00:29:55;;;;;;;4.37;2.07;;;;;;;22.03;60.62;98018.78;6145287;23;20456;-89
2022/09/27 00:32:23;;;;;;;4.67;2.10;;;;;;;21.98;61.55;98021.16;6127153;23;20179;-90
2022/09/27 00:34:49;;;;;;;3.77;2.10;;;;;;;21.91;62.47;98020.19;6125497;23;20258;-88
2022/09/27 00:37:14;;;;;;;7.13;1.83;;;;;;;21.82;63.68;98015.91;6127439;23;20176;-89
2022/09/27 00:39:40;;;;;;;4.70;2.20;;;;;;;21.77;63.94;98012.97;6127291;23;20268;-88
2022/09/27 00:42:14;;;;;;;3.10;1.77;;;;;;;21.89;63.80;98008.88;6127333;23;20496;-90
2022/09/27 00:44:40;;;;;;;6.00;2.00;;;;;;;21.83;64.23;98006.88;6127274;23;20167;-89
2022/09/27 00:47:23;;;;;;;2.97;2.00;;;;;;;21.85;64.38;98004.91;6126956;23;20436;-90
2022/09/27 00:50:10;;;;;;;4.80;2.47;;;;;;;21.95;64.47;98003.66;6125787;23;20148;-91
2022/09/27 00:52:51;;;;;;;4.60;1.83;;;;;;;21.96;65.32;98002.66;6126886;23;20448;-86
2022/09/27 00:55:29;;;;;;;7.70;2.33;;;;;;;21.96;66.01;97999.97;6127274;23;20127;-91
2022/09/27 00:58:01;;;;;;;4.30;2.13;;;;;;;22.02;65.98;98001.09;6127650;23;20210;-89
2022/09/27 01:00:30;;;;;;;3.33;2.40;;;;;;;22.04;65.94;97999.06;6127166;23;20156;-90
2022/09/27 01:02:57;;;;;;;3.50;2.17;;;;;;;21.91;66.37;97996.19;6126783;23;20664;-88
2022/09/27 01:05:28;;;;;;;7.13;3.00;;;;;;;21.97;65.88;97992.81;6125827;23;20266;-87
2022/09/27 01:07:55;;;;;;;5.53;2.03;;;;;;;21.92;66.29;97990.69;6127425;23;20356;-89
2022/09/27 01:10:24;;;;;;;4.97;2.20;;;;;;;22.02;65.73;97985.09;6125521;23;20155;-90
2022/09/27 01:12:59;;;;;;;6.80;2.60;;;;;;;22.03;65.43;97986.75;6150444;23;20170;-89
2022/09/27 01:15:48;;;;;;;4.70;2.33;;;;;;;21.99;64.99;97977.44;6127443;23;20140;-91
2022/09/27 01:18:36;;;;;;;4.07;2.30;;;;;;;22.06;64.92;97980.22;6127446;23;20536;-89
2022/09/27 01:21:08;;;;;;;6.07;2.30;;;;;;;22.02;64.41;97969.06;6125486;23;20155;-90
2022/09/27 01:23:51;;;;;;;4.37;2.20;;;;;;;22.08;64.05;97964.84;6126561;23;20172;-89
2022/09/27 01:26:39;;;;;;;3.00;1.83;;;;;;;22.15;63.24;97966.63;6126633;23;20132;-92
2022/09/27 01:29:26;;;;;;;4.37;2.17;;;;;;;22.12;63.68;97980.31;6125504;23;20598;-89
2022/09/27 01:32:00;;;;;;;4.50;2.07;;;;;;;22.03;63.28;97970.75;6126659;23;20148;-88
2022/09/27 01:34:52;;;;;;;2.83;1.73;;;;;;;22.16;62.42;97962.94;6126725;23;20241;-88
2022/09/27 01:37:17;;;;;;;6.43;1.70;;;;;;;22.11;62.78;97960.00;6124498;23;20234;-90
2022/09/27 01:39:51;;;;;;;2.57;1.67;;;;;;;22.15;62.00;97958.63;6127288;23;20182;-89
2022/09/27 01:42:41;;;;;;;6.13;2.07;;;;;;;22.18;61.55;97955.59;6126935;23;20139;-89
2022/09/27 01:45:18;;;;;;;3.00;1.70;;;;;;;22.27;60.83;97957.16;6126460;23;20175;-88
2022/09/27 01:47:52;;;;;;;3.37;1.90;;;;;;;22.31;59.94;97942.44;6126369;23;20194;-87
2022/09/27 01:50:28;;;;;;;6.60;1.63;;;;;;;22.36;59.59;97948.06;6126756;23;20136;-89
2022/09/27 01:53:00;;;;;;;2.97;1.73;;;;;;;22.40;59.33;97951.19;6126819;23;20154;-92
2022/09/27 01:55:32;;;;;;;2.63;1.80;;;;;;;22.45;59.17;97941.63;6125255;23;20144;-90
2022/09/27 01:58:13;;;;;;;3.20;1.80;;;;;;;22.44;58.82;97942.63;6127043;23;20152;-92
2022/09/27 02:00:41;;;;;;;3.27;2.07;;;;;;;22.39;58.91;97937.00;6126656;23;20150;-91
2022/09/27 02:03:15;;;;;;;2.90;1.70;;;;;;;22.31;59.02;97955.78;6126283;23;20165;-89
2022/09/27 02:05:57;;;;;;;3.70;2.10;;;;;;;22.40;58.43;97945.84;6125104;23;20564;-88
2022/09/27 02:09:27;;;;;;;2.53;1.57;;;;;;;22.52;57.76;97934.53;6126688;23;20140;-92
2022/09/27 02:11:37;;;;;;;3.00;1.87;;;;;;;22.61;57.73;97922.72;6117954;23;20175;-89
2022/09/27 02:14:12;;;;;;;2.70;1.70;;;;;;;22.54;57.64;97928.97;6125183;23;20563;-91
2022/09/27 02:17:28;;;;;;;2.53;1.57;;;;;;;22.47;57.92;97925.41;6125092;23;20579;-88
2022/09/27 02:20:40;;;;;;;4.93;1.63;;;;;;;22.42;58.22;97914.44;6113056;23;20166;-90
2022/09/27 02:23:30;;;;;;;2.57;1.57;;;;;;;22.45;58.33;97914.09;6095697;23;20156;-88
2022/09/27 02:26:03;;;;;;;2.63;1.67;;;;;;;22.47;59.18;97922.72;6095128;23;20227;-87
2022/09/27 02:29:11;;;;;;;4.03;1.77;;;;;;;22.52;59.39;97920.34;6118201;23;20214;-87
2022/09/27 02:31:37;;;;;;;5.27;1.90;;;;;;;22.52;60.35;97923.00;6078003;23;20160;-90
2022/09/27 02:34:15;;;;;;;4.67;2.00;;;;;;;22.73;59.55;97909.75;6125755;23;20590;-92
2022/09/27 02:36:41;;;;;;;3.03;1.67;;;;;;;22.76;58.76;97909.38;6126733;23;20159;-89
2022/09/27 02:39:07;;;;;;;3.73;2.03;;;;;;;22.67;59.17;97910.50;6126305;23;20198;-91
2022/09/27 02:41:33;;;;;;;4.03;1.97;;;;;;;22.63;59.53;97920.72;6126807;23;20174;-89
2022/09/27 02:44:03;;;;;;;5.23;2.20;;;;;;;22.65;60.15;97923.22;6126187;23;20176;-90
2022/09/27 02:46:52;;;;;;;3.83;1.97;;;;;;;22.71;61.11;97924.31;6126350;23;20457;-93
2022/09/27 02:49:26;;;;;;;6.70;2.23;;;;;;;22.83;61.07;97920.13;6126351;23;20167;-90
2022/09/27 02:52:16;;;;;;;5.13;2.00;;;;;;;22.76;61.57;97916.56;6126321;23;20151;-90
2022/09/27 02:55:26;;;;;;;3.50;1.83;;;;;;;22.63;61.80;97912.72;6126633;23;20579;-88
2022/09/27 02:58:13;;;;;;;4.47;2.50;;;;;;;22.65;61.81;97917.88;6066049;23;20161;-88
2022/09/27 03:00:51;;;;;;;3.77;2.30;;;;;;;22.69;61.69;97910.31;6127750;23;20602;-90
2022/09/27 03:03:22;;;;;;;6.33;2.23;;;;;;;22.66;61.93;97894.66;6126641;23;20155;-88
2022/09/27 03:05:53;;;;;;;4.47;1.93;;;;;;;22.62;62.05;97886.16;6127961;23;20136;-90
2022/09/27 03:08:19;;;;;;;3.93;2.07;;;;;;;22.42;63.15;97899.25;6128501;23;20144;-89
2022/09/27 03:10:44;;;;;;;4.90;2.20;;;;;;;22.47;63.97;97890.69;6128459;23;20162;-89
2022/09/27 03:13:14;;;;;;;3.97;2.27;;;;;;;22.43;64.26;97892.09;6127774;23;20158;-88
2022/09/27 03:15:42;;;;;;;4.83;2.37;;;;;;;22.36;64.73;97881.31;6127811;23;20148;-90
2022/09/27 03:18:07;;;;;;;3.47;2.60;;;;;;;22.47;64.50;97894.19;6128456;23;20606;-90
2022/09/27 03:20:33;;;;;;;4.53;2.57;;;;;;;22.46;64.92;97889.03;6126650;23;20156;-91
2022/09/27 03:22:58;;;;;;;2.67;1.80;;;;;;;22.46;64.75;97881.84;6127738;23;20152;-92
2022/09/27 03:25:25;;;;;;;5.93;2.50;;;;;;;22.45;65.17;97874.88;6126812;23;20184;-90
2022/09/27 03:27:51;;;;;;;4.20;1.97;;;;;;;22.41;64.97;97883.41;6127777;23;20209;-89
2022/09/27 03:30:17;;;;;;;4.07;2.37;;;;;;;22.50;64.64;97888.47;6127687;23;20445;-88
2022/09/27 03:32:43;;;;;;;7.10;2.00;;;;;;;22.41;64.80;97886.91;6128018;23;20310;-90
2022/09/27 03:35:12;;;;;;;4.23;2.20;;;;;;;22.38;65.02;97883.81;6126963;23;20238;-92
2022/09/27 03:37:39;;;;;;;7.13;2.63;;;;;;;22.43;64.81;97881.41;6149759;23;20156;-92
2022/09/27 03:40:22;;;;;;;;;;;;;;;;;;;;;
2022/09/27 03:42:50;;;;;;;5.17;2.03;;;;;;;22.45;64.14;97858.84;6123731;23;20231;-89
2022/09/27 03:45:17;;;;;;;7.80;2.40;;;;;;;22.48;64.34;97855.78;6125342;23;20254;-87
2022/09/27 03:47:45;;;;;;;5.57;2.43;;;;;;;22.44;64.47;97859.00;6127124;23;20151;-89
2022/09/27 03:50:12;;;;;;;4.10;2.50;;;;;;;22.54;63.49;97863.06;6126710;23;20226;-89
2022/09/27 03:52:54;;;;;;;6.57;2.20;;;;;;;22.66;63.36;97871.44;6126278;23;20160;-92
2022/09/27 03:55:28;;;;;;;5.33;2.70;;;;;;;22.50;63.51;97871.63;6126564;23;20147;-90
2022/09/27 03:57:58;;;;;;;6.30;2.17;;;;;;;22.38;64.32;97865.91;6127383;23;20182;-91
2022/09/27 04:00:25;;;;;;;8.33;2.60;;;;;;;22.58;63.35;97852.84;6127251;23;20147;-91
2022/09/27 04:02:52;;;;;;;2.90;1.73;;;;;;;22.49;64.71;97852.09;6126337;23;20166;-89
2022/09/27 04:05:19;;;;;;;13.57;4.33;;;;;;;22.33;65.18;97865.66;6127051;23;20180;-90
2022/09/27 04:07:51;;;;;;;3.63;1.90;;;;;;;22.39;65.21;97864.91;6125158;23;20163;-92
2022/09/27 04:10:29;;;;;;;6.70;2.23;;;;;;;22.48;64.70;97858.44;6125267;23;20152;-91
2022/09/27 04:13:00;;;;;;;6.03;2.63;;;;;;;22.42;64.90;97861.03;6125486;23;20567;-88
2022/09/27 04:15:27;;;;;;;4.23;2.50;;;;;;;22.44;64.96;97857.19;6126855;23;20191;-90
2022/09/27 04:17:53;;;;;;;4.47;2.70;;;;;;;22.46;65.06;97848.97;6126802;23;20148;-91
2022/09/27 04:20:20;;;;;;;3.87;2.27;;;;;;;22.48;65.30;97842.41;6125604;23;20160;-89
2022/09/27 04:22:52;;;;;;;3.30;2.20;;;;;;;22.55;64.88;97832.66;6126733;23;20183;-91
2022/09/27 04:25:21;;;;;;;4.13;2.23;;;;;;;22.47;65.06;97851.47;6126448;23;20172;-90
2022/09/27 04:27:54;;;;;;;4.40;2.73;;;;;;;22.62;64.36;97838.94;6125842;23;20502;-90
2022/09/27 04:30:22;;;;;;;2.57;1.93;;;;;;;22.77;64.06;97838.09;6126265;23;20476;-91
2022/09/27 04:32:48;;;;;;;5.93;2.30;;;;;;;22.72;64.17;97829.81;6124947;23;20496;-87
2022/09/27 04:38:03;;;;;;;5.27;2.70;;;;;;;22.76;64.43;97839.09;6126806;23;20183;-90
2022/09/27 04:40:35;;;;;;;4.80;2.67;;;;;;;22.81;64.39;97848.19;6126959;23;20147;-87
2022/09/27 04:43:02;;;;;;;6.90;2.37;;;;;;;22.72;64.38;97843.97;6125720;23;20607;-87
2022/09/27 04:45:29;;;;;;;4.23;2.30;;;;;;;22.72;64.08;97848.50;6126505;23;20205;-89
2022/09/27 04:47:56;;;;;;;4.17;2.13;;;;;;;22.92;63.28;97849.53;6127596;23;20160;-89
2022/09/27 04:50:21;;;;;;;5.43;2.40;;;;;;;22.99;63.13;97845.09;6126040;23;20186;-92
2022/09/27 04:52:52;;;;;;;3.57;2.17;;;;;;;22.95;62.84;97838.47;6126429;23;20474;-89
2022/09/27 04:55:43;;;;;;;6.70;3.03;;;;;;;22.82;63.64;97841.84;6126372;23;20152;-91
2022/09/27 04:58:10;;;;;;;3.23;2.03;;;;;;;22.71;64.05;97836.16;6150397;23;20508;-89
2022/09/27 05:01:02;;;;;;;7.87;2.67;;;;;;;22.77;63.84;97848.78;6128342;23;20144;-94
2022/09/27 05:03:41;;;;;;;8.03;2.47;;;;;;;22.89;63.71;97847.25;6126424;23;20219;-96
2022/09/27 05:06:35;;;;;;;5.93;1.77;;;;;;;22.93;63.40;97837.84;6129280;23;20154;-93
2022/09/27 05:09:37;;;;;;;5.87;2.60;;;;;;;22.86;63.96;97839.59;6124285;23;20594;-92
2022/09/27 05:12:09;;;;;;;6.60;2.30;;;;;;;22.88;64.07;97848.25;6010618;23;20162;-93
2022/09/27 05:15:29;;;;;;;5.13;1.80;;;;;;;23.11;63.71;97844.38;6151362;23;20226;-95
2022/09/27 05:18:37;;;;;;;4.67;2.40;;;;;;;23.16;63.66;97852.69;6082257;23;20239;-94
2022/09/27 05:21:40;;;;;;;6.30;2.57;;;;;;;23.11;63.86;97867.66;6006553;23;20266;-91
2022/09/27 05:24:40;;;;;;;3.87;2.37;;;;;;;23.13;63.92;97868.28;5955803;24;20187;-96
2022/09/27 05:27:34;;;;;;;5.43;2.53;;;;;;;23.24;63.11;97862.44;5955374;24;20155;-93
2022/09/27 05:30:14;;;;;;;6.30;1.97;;;;;;;23.28;63.20;97874.38;5954160;24;20207;-94
2022/09/27 05:32:54;;;;;;;4.60;2.20;;;;;;;23.32;63.19;97877.50;5999805;23;20162;-93
2022/09/27 05:35:23;;;;;;;5.60;2.17;;;;;;;23.34;62.78;97870.13;6014429;23;20205;-94
2022/09/27 05:41:33;;;;;;;5.43;2.50;;;;;;;23.48;62.31;97871.94;6004183;23;20169;-95
2022/09/27 05:44:30;;;;;;;5.83;2.40;;;;;;;23.68;61.42;97864.91;6010393;23;20217;-91
2022/09/27 05:46:56;;;;;;;4.07;2.20;;;;;;;23.74;61.05;97859.59;6009448;23;20159;-90
2022/09/27 05:49:27;;;;;;;3.33;1.87;;;;;;;23.74;60.64;97862.25;6009787;23;20171;-90
2022/09/27 05:51:54;;;;;;;5.50;1.90;;;;;;;23.85;60.35;97867.09;6008773;23;20182;-89
2022/09/27 05:54:21;;;;;;;9.27;2.47;;;;;;;24.01;60.14;97862.44;6009001;23;20150;-89
2022/09/27 05:56:51;;;;;;;2.83;1.57;;;;;;;24.10;59.62;97848.75;6008739;23;20269;-91
2022/09/27 05:59:18;;;;;;;5.40;2.17;;;;;;;24.45;58.66;97858.41;5985370;23;20231;-88
2022/09/27 06:01:43;;;;;;;4.47;1.93;;;;;;;24.77;57.70;97856.88;6054295;23;20656;-89
2022/09/27 06:04:10;;;;;;;4.30;2.00;;;;;;;25.16;57.24;97866.13;6065498;23;20181;-88
2022/09/27 06:06:36;;;;;;;6.97;1.80;;;;;;;25.75;55.39;97869.69;6065757;23;20252;-88
2022/09/27 06:09:03;;;;;;;5.03;2.33;;;;;;;26.29;53.37;97860.53;6093881;23;20583;-88
2022/09/27 06:11:29;;;;;;;5.23;2.17;;;;;;;26.78;51.26;97856.25;6125995;23;20226;-90
2022/09/27 06:13:56;;;;;;;3.57;1.90;;;;;;;27.19;49.28;97868.47;6125879;23;20671;-88
2022/09/27 06:16:22;;;;;;;3.40;1.50;;;;;;;27.46;48.83;97866.44;6125698;23;20152;-88
2022/09/27 06:18:49;;;;;;;3.53;1.80;;;;;;;27.73;48.10;97868.72;6125771;23;20152;-89
2022/09/27 06:21:16;;;;;;;3.20;1.58;;;;;;;27.61;47.27;97867.78;6125557;23;20166;-88
2022/09/27 06:23:42;;;;;;;2.85;1.40;;;;;;;27.29;48.02;97872.31;6125740;23;20278;-89
2022/09/27 06:26:10;;;;;;;2.47;1.50;;;;;;;27.26;48.27;97858.47;6125893;23;20152;-90
2022/09/27 06:28:37;;;;;;;5.72;2.03;;;;;;;26.92;48.13;97848.94;6125734;23;20162;-90
2022/09/27 06:31:06;;;;;;;5.80;1.90;;;;;;;26.64;48.96;97840.38;6125816;23;20218;-88
2022/09/27 06:33:34;;;;;;;6.20;1.73;;;;;;;26.37;49.79;97846.88;6125974;23;20152;-89
2022/09/27 06:36:06;;;;;;;5.30;1.60;;;;;;;26.21;50.16;97854.38;6095185;23;20215;-89
2022/09/27 06:38:32;;;;;;;3.67;1.90;;;;;;;26.02;50.92;97852.50;6124080;23;20218;-89
2022/09/27 06:41:08;;;;;;;4.07;1.50;;;;;;;26.06;51.14;97842.19;6125803;23;20167;-88
2022/09/27 06:43:34;;;;;;;3.50;1.80;;;;;;;26.07;51.04;97841.16;6125716;23;20239;-89
2022/09/27 06:46:06;;;;;;;3.83;1.60;;;;;;;26.23;51.80;97836.16;6125719;23;20179;-91
2022/09/27 06:48:37;;;;;;;4.33;1.50;;;;;;;26.17;51.88;97847.78;6099788;23;20178;-88
2022/09/27 06:51:07;;;;;;;6.55;1.88;;;;;;;26.09;52.03;97850.66;6125791;23;20132;-89
2022/09/27 06:53:33;;;;;;;5.65;2.15;;;;;;;26.03;51.69;97842.59;6125857;23;20182;-89
2022/09/27 06:56:03;;;;;;;4.30;1.77;;;;;;;25.97;51.65;97855.00;6100374;23;20238;-91
2022/09/27 07:01:16;;;;;;;3.80;1.98;;;;;;;25.68;52.44;97855.47;6125034;23;20210;-86
2022/09/27 07:03:48;;;;;;;4.80;1.80;;;;;;;25.91;52.28;97847.78;6125928;23;20176;-90
2022/09/27 07:06:24;;;;;;;5.40;1.70;;;;;;;26.04;52.36;97834.34;6100377;23;20158;-90
2022/09/27 07:08:51;;;;;;;2.25;1.20;;;;;;;26.06;51.84;97848.38;6123982;23;20226;-89
2022/09/27 07:11:18;;;;;;;6.55;1.52;;;;;;;26.01;51.10;97842.81;6099828;23;20164;-88
2022/09/27 07:13:45;;;;;;;3.55;1.35;;;;;;;25.87;51.71;97843.88;6125002;23;20148;-89
2022/09/27 07:16:13;;;;;;;3.13;1.60;;;;;;;26.00;51.51;97846.53;6121504;23;20147;-89
2022/09/27 07:18:42;;;;;;;5.85;1.92;;;;;;;26.04;51.95;97855.84;6122821;23;20227;-87
2022/09/27 07:21:15;;;;;;;5.63;1.60;;;;;;;25.83;52.08;97866.81;6123554;23;20167;-90
2022/09/27 07:23:41;;;;;;;3.78;1.70;;;;;;;25.76;52.46;97855.22;6124431;23;20184;-90
2022/09/27 07:26:09;;;;;;;5.38;1.42;;;;;;;25.92;52.60;97853.97;6124589;23;20230;-89
2022/09/27 07:28:40;;;;;;;7.03;1.60;;;;;;;26.08;52.28;97850.84;6125008;23;20278;-90
2022/09/27 07:31:08;;;;;;;2.60;1.20;;;;;;;26.27;51.76;97846.50;6124711;23;20159;-88
2022/09/27 07:33:35;;;;;;;3.10;1.60;;;;;;;26.15;51.93;97844.47;6124764;23;20148;-92
2022/09/27 07:36:10;;;;;;;3.55;1.52;;;;;;;26.26;52.13;97848.34;6124813;23;20199;-94
2022/09/27 07:38:37;;;;;;;4.20;1.73;;;;;;;26.22;50.80;97837.22;6098909;23;20178;-89
2022/09/27 07:41:21;;;;;;;2.70;1.23;;;;;;;26.17;50.71;97842.41;6099338;23;20227;-89
2022/09/27 07:43:48;;;;;;;3.22;1.25;;;;;;;26.06;51.02;97843.00;6125054;23;20172;-87
2022/09/27 07:46:15;;;;;;;3.17;1.50;;;;;;;26.11;50.54;97831.63;6125336;23;20156;-88
2022/09/27 07:48:48;;;;;;;3.15;1.35;;;;;;;26.24;50.22;97824.41;6101042;23;20156;-91
2022/09/27 07:51:17;;;;;;;10.50;1.98;;;;;;;26.26;50.10;97823.38;6126062;23;20132;-91
2022/09/27 07:53:44;;;;;;;10.40;1.98;;;;;;;26.37;49.88;97803.88;6100962;23;20152;-88
2022/09/27 07:56:11;;;;;;;3.58;1.48;;;;;;;26.26;50.38;97818.81;6125233;23;20182;-87
2022/09/27 07:58:39;;;;;;;4.20;1.48;;;;;;;26.20;49.65;97815.09;6126231;23;20211;-88
2022/09/27 08:01:06;;;;;;;2.65;1.30;;;;;;;26.34;49.62;97825.81;6126702;23;20215;-88
2022/09/27 08:03:33;;;;;;;5.50;1.38;;;;;;;26.54;49.70;97829.25;6126426;23;20148;-88
2022/09/27 08:06:02;;;;;;;4.15;1.67;;;;;;;26.78;49.42;97823.19;6126265;23;20551;-88
2022/09/27 08:08:31;;;;;;;4.13;1.33;;;;;;;26.91;48.67;97828.50;6098118;23;20157;-89
2022/09/27 08:11:14;;;;;;;3.60;1.40;;;;;;;26.90;47.83;97837.59;6126263;23;20598;-88
2022/09/27 08:13:42;;;;;;;2.42;1.33;;;;;;;26.86;48.41;97828.28;6126673;23;20143;-90
2022/09/27 08:16:13;;;;;;;2.45;1.25;;;;;;;26.87;47.23;97821.06;6126744;23;20587;-90
2022/09/27 08:18:40;;;;;;;5.22;1.38;;;;;;;26.88;47.47;97828.91;6126639;23;20633;-88
2022/09/27 08:21:06;;;;;;;4.15;1.58;;;;;;;27.00;47.61;97832.56;6126446;23;20423;-90
2022/09/27 08:23:36;;;;;;;3.58;1.50;;;;;;;27.10;47.52;97827.53;6100992;23;20167;-89
2022/09/27 08:26:23;;;;;;;4.25;1.23;;;;;;;27.43;46.33;97827.34;6100868;23;20160;-90
2022/09/27 08:28:50;;;;;;;4.28;1.17;;;;;;;27.45;44.94;97827.94;6125566;23;20246;-88
2022/09/27 08:31:17;;;;;;;4.57;1.17;;;;;;;27.44;45.89;97819.03;6126270;23;20594;-87
2022/09/27 08:33:50;;;;;;;6.35;1.00;;;;;;;27.40;45.25;97804.38;6100212;23;20159;-92
2022/09/27 08:36:16;;;;;;;5.80;1.58;;;;;;;27.50;45.34;97800.34;6125623;23;20204;-89
2022/09/27 08:38:43;;;;;;;2.65;1.10;;;;;;;27.43;45.06;97801.25;6125872;23;20237;-87
2022/09/27 08:41:32;;;;;;;5.75;0.88;;;;;;;27.70;45.65;97811.78;6126079;23;20191;-94
2022/09/27 08:44:40;;;;;;;3.13;1.35;;;;;;;27.69;44.89;97793.97;6106295;23;20631;-90
2022/09/27 08:47:32;;;;;;;1.27;0.77;;;;;;;27.59;44.40;97809.81;6098736;23;20170;-91
2022/09/27 08:50:25;;;;;;;2.10;0.82;;;;;;;27.30;44.52;97801.34;6124741;23;20147;-91
2022/09/27 08:53:28;;;;;;;2.58;1.30;;;;;;;27.47;44.64;97796.25;6124148;23;20229;-93
2022/09/27 08:59:58;;;;;;;;;;;;;;;;;;;;;
2022/09/27 09:02:33;;;;;;;5.38;1.30;;;;;;;27.86;44.24;97785.09;6098631;23;20247;-89
2022/09/27 09:05:32;;;;;;;1.77;0.88;;;;;;;27.87;43.75;97791.31;6124058;23;20171;-91
2022/09/27 09:08:42;;;;;;;2.67;1.10;;;;;;;27.84;43.50;97791.75;6124110;23;20148;-91
2022/09/27 09:14:57;;;;;;;5.38;1.58;;;;;;;28.71;43.51;97777.94;6124111;23;20159;-89
2022/09/27 09:18:00;;;;;;;2.92;1.00;;;;;;;29.08;41.99;97781.34;6097808;23;20559;-92
2022/09/27 09:21:05;;;;;;;3.75;1.30;;;;;;;29.30;41.41;97771.66;6123243;23;20152;-93
2022/09/27 09:23:56;;;;;;;4.38;0.90;;;;;;;29.34;40.12;97759.38;6123670;23;20146;-90
2022/09/27 09:26:56;;;;;;;3.53;0.95;;;;;;;28.98;41.41;97762.19;6097544;23;20167;-90
2022/09/27 09:30:04;;;;;;;2.00;0.68;;;;;;;28.82;41.12;97754.75;6112679;23;20173;-93
2022/09/27 09:32:51;;;;;;;2.83;0.80;;;;;;;28.88;41.48;97745.75;6125690;23;20148;-91
2022/09/27 09:35:34;;;;;;;3.22;0.98;;;;;;;28.94;41.75;97744.81;6126107;23;20140;-88
2022/09/27 09:38:10;;;;;;;2.20;1.10;;;;;;;28.94;41.27;97755.59;6125821;23;20206;-91
2022/09/27 09:40:48;;;;;;;2.85;1.20;;;;;;;28.87;41.14;97738.69;6124795;23;20158;-91
2022/09/27 09:43:22;;;;;;;4.50;1.10;;;;;;;28.92;41.26;97739.66;6125738;23;20140;-90
2022/09/27 09:46:19;;;;;;;5.88;1.38;;;;;;;29.13;40.65;97730.19;6125690;23;20630;-92
2022/09/27 09:49:25;;;;;;;4.13;0.88;;;;;;;29.28;40.78;97730.59;6110170;23;20162;-94
2022/09/27 09:51:55;;;;;;;3.53;0.80;;;;;;;29.66;40.88;97722.03;6124647;23;20583;-88
2022/09/27 09:54:39;;;;;;;3.28;0.90;;;;;;;29.68;40.24;97720.75;6126041;23;20215;-90
2022/09/27 09:57:17;;;;;;;4.25;1.35;;;;;;;29.72;39.74;97738.09;6125822;23;20690;-90
2022/09/27 09:59:47;;;;;;;2.28;0.80;;;;;;;29.86;40.38;97719.81;6125966;23;20571;-91
2022/09/27 10:02:27;;;;;;;2.05;0.90;;;;;;;29.82;40.07;97721.34;6125780;23;20152;-92
2022/09/27 10:05:05;;;;;;;3.25;0.70;;;;;;;29.93;40.26;97717.78;6125633;23;20633;-91
2022/09/27 10:07:38;;;;;;;2.63;0.93;;;;;;;30.24;39.94;97700.34;6125667;23;20136;-93
2022/09/27 10:10:15;;;;;;;2.28;1.08;;;;;;;30.65;39.07;97700.06;6125954;23;20162;-91
2022/09/27 10:12:42;;;;;;;2.67;1.25;;;;;;;30.55;38.78;97701.75;6125699;23;20140;-89
2022/09/27 10:15:19;;;;;;;2.60;1.35;;;;;;;30.68;38.88;97693.34;6097730;23;20477;-90
2022/09/27 10:17:49;;;;;;;3.58;0.98;;;;;;;30.79;38.03;97703.31;6124681;23;20566;-88
2022/09/27 10:20:57;;;;;;;8.80;1.27;;;;;;;30.58;38.41;97683.19;6076265;23;20163;-90
2022/09/27 10:23:36;;;;;;;2.85;0.95;;;;;;;30.63;37.98;97680.56;6125991;23;20576;-90
2022/09/27 10:26:07;;;;;;;2.47;1.50;;;;;;;30.51;38.07;97666.25;6125011;23;20545;-89
2022/09/27 10:29:23;;;;;;;1.13;0.70;;;;;;;30.42;38.17;97651.50;6100248;23;20152;-88
2022/09/27 10:31:59;;;;;;;2.42;0.90;;;;;;;30.35;38.00;97656.19;6016587;23;20164;-90
2022/09/27 10:34:30;;;;;;;2.78;1.00;;;;;;;30.67;37.48;97643.00;6100627;23;20174;-93
2022/09/27 10:37:10;;;;;;;1.33;0.60;;;;;;;30.81;38.06;97653.28;6125625;23;20171;-90
2022/09/27 10:39:55;;;;;;;2.65;0.70;;;;;;;30.83;38.49;97670.09;6126126;23;20155;-92
2022/09/27 10:42:39;;;;;;;3.15;1.10;;;;;;;30.84;38.25;97666.34;6125889;23;20201;-91
2022/09/27 10:45:52;;;;;;;1.33;0.63;;;;;;;30.66;38.36;97660.31;6126436;23;20287;-89
2022/09/27 10:48:24;;;;;;;5.05;1.13;;;;;;;30.59;38.40;97652.34;6122682;23;20221;-90
2022/09/27 10:51:21;;;;;;;3.13;0.88;;;;;;;30.88;37.94;97651.22;6100161;23;20163;-90
2022/09/27 10:53:49;;;;;;;2.08;0.55;;;;;;;31.05;37.67;97656.69;6108755;23;20619;-90
2022/09/27 10:56:47;;;;;;;1.67;0.50;;;;;;;31.29;37.47;97658.13;6126007;23;20163;-93
2022/09/27 10:59:43;;;;;;;1.30;0.55;;;;;;;31.47;36.78;97648.94;6116543;23;20155;-90
2022/09/27 11:02:30;;;;;;;2.03;0.68;;;;;;;31.21;37.03;97655.03;6065672;23;20161;-92
2022/09/27 11:05:14;;;;;;;2.47;0.82;;;;;;;30.90;37.57;97662.63;6125623;23;20184;-92
2022/09/27 11:08:01;;;;;;;2.03;0.85;;;;;;;30.43;39.10;97642.31;6125024;23;20160;-91
2022/09/27 11:11:03;;;;;;;3.20;0.88;;;;;;;30.46;39.38;97657.22;6100298;23;20639;-92
2022/09/27 11:13:34;;;;;;;1.67;0.73;;;;;;;30.07;39.64;97648.91;6125991;23;20132;-90
2022/09/27 11:16:35;;;;;;;2.35;0.70;;;;;;;30.08;39.76;97647.88;6100657;23;20555;-90
2022/09/27 11:19:10;;;;;;;3.13;1.00;;;;;;;29.72;40.31;97650.84;6126577;23;20223;-90
2022/09/27 11:22:04;;;;;;;3.35;1.02;;;;;;;29.61;41.04;97649.81;6128066;23;20535;-89
2022/09/27 11:25:14;;;;;;;4.20;1.33;;;;;;;29.72;40.75;97643.56;6127658;23;20164;-89
2022/09/27 11:27:59;;;;;;;5.20;0.95;;;;;;;29.68;41.71;97628.09;6112263;23;20156;-89
2022/09/27 11:30:45;;;;;;;1.83;1.10;;;;;;;29.91;41.51;97629.94;6127953;23;20151;-90
2022/09/27 11:33:16;;;;;;;2.88;0.85;;;;;;;29.96;40.85;97628.16;6128003;23;20155;-91
2022/09/27 11:36:12;;;;;;;1.67;0.95;;;;;;;29.78;40.83;97637.25;6101889;23;20152;-92
2022/09/27 11:38:52;;;;;;;2.67;1.00;;;;;;;29.22;42.40;97613.59;6127434;23;20171;-90
2022/09/27 11:41:36;;;;;;;1.17;0.70;;;;;;;28.94;42.63;97609.94;6101968;23;20156;-90
2022/09/27 11:44:14;;;;;;;2.13;0.70;;;;;;;29.07;42.57;97610.53;6127561;23;20243;-92
2022/09/27 11:46:41;;;;;;;3.65;0.63;;;;;;;29.06;42.67;97602.69;6127422;23;20144;-91
2022/09/27 11:49:28;;;;;;;1.98;0.75;;;;;;;29.00;42.90;97601.72;6099994;23;20568;-88
2022/09/27 11:52:27;;;;;;;2.40;0.80;;;;;;;28.52;43.95;97611.84;6101893;23;20152;-88
2022/09/27 11:55:08;;;;;;;1.58;0.55;;;;;;;28.39;44.04;97622.81;6127150;23;20214;-92
2022/09/27 11:57:51;;;;;;;1.23;0.70;;;;;;;28.23;44.22;97623.47;6127614;23;20146;-92
2022/09/27 12:00:24;;;;;;;2.25;0.50;;;;;;;28.44;44.29;97625.63;6101845;23;20535;-91
2022/09/27 12:03:27;;;;;;;1.52;0.73;;;;;;;28.17;44.31;97625.19;6127188;23;20132;-91
2022/09/27 12:06:40;;;;;;;1.67;0.68;;;;;;;28.25;43.80;97624.88;6127456;23;20678;-89
2022/09/27 12:09:18;;;;;;;0.80;0.55;;;;;;;28.06;44.36;97628.69;6107653;23;20160;-94
2022/09/27 12:12:28;;;;;;;2.42;1.30;;;;;;;28.17;44.95;97619.00;6127230;23;20508;-88
2022/09/27 12:15:28;;;;;;;3.45;1.00;;;;;;;28.64;43.87;97604.63;6127400;23;20136;-86
2022/09/27 12:18:09;;;;;;;1.58;0.52;;;;;;;28.67;43.46;97608.75;6127763;23;20221;-90
2022/09/27 12:20:38;;;;;;;2.95;0.73;;;;;;;28.61;44.11;97605.94;6126903;23;20136;-88
2022/09/27 12:23:16;;;;;;;2.85;1.30;;;;;;;28.83;43.50;97613.44;6125865;23;20159;-90
2022/09/27 12:25:45;;;;;;;1.35;0.65;;;;;;;28.79;42.69;97606.88;6127377;23;20231;-88
2022/09/27 12:28:35;;;;;;;3.30;0.93;;;;;;;28.90;42.93;97601.50;6126251;23;20156;-91
2022/09/27 12:31:24;;;;;;;2.58;0.90;;;;;;;29.02;42.67;97604.19;6125588;23;20543;-91
2022/09/27 12:34:24;;;;;;;3.95;1.02;;;;;;;29.05;42.13;97595.63;6099755;23;20177;-91
2022/09/27 12:37:12;;;;;;;2.53;0.65;;;;;;;29.20;41.84;97577.94;6126329;23;20172;-91
2022/09/27 12:43:20;;;;;;;1.75;0.68;;;;;;;30.21;40.35;97593.53;6067257;23;20166;-92
2022/09/27 12:46:25;;;;;;;2.72;1.42;;;;;;;30.30;39.64;97583.09;6127072;23;20175;-87